createdAt,value
2023-04-22T00:02:09.897Z,4.00
2023-04-22T00:04:38.506Z,3.75
2023-04-22T00:07:06.715Z,3.60
2023-04-22T00:09:34.914Z,3.65
2023-04-22T00:12:03.104Z,3.42
2023-04-22T00:14:31.197Z,4.57
2023-04-22T00:16:59.345Z,4.30
2023-04-22T00:19:28.874Z,4.43
2023-04-22T00:21:57.008Z,4.85
2023-04-22T00:24:25.104Z,4.55
2023-04-22T00:26:53.130Z,4.22
2023-04-22T00:29:21.193Z,4.35
2023-04-22T00:31:49.242Z,4.50
2023-04-22T00:34:18.380Z,3.85
2023-04-22T00:36:47.850Z,4.13
2023-04-22T00:39:16.335Z,4.78
2023-04-22T00:41:44.603Z,4.40
2023-04-22T00:44:13.321Z,4.78
2023-04-22T00:46:41.723Z,4.20
2023-04-22T00:49:09.953Z,4.10
2023-04-22T00:51:38.107Z,4.40
2023-04-22T00:54:07.794Z,4.40
2023-04-22T00:56:37.638Z,3.63
2023-04-22T00:59:06.109Z,3.53
2023-04-22T01:01:34.916Z,4.40
2023-04-22T01:04:04.645Z,4.18
2023-04-22T01:06:33.536Z,4.10
2023-04-22T01:09:01.913Z,4.10
2023-04-22T01:11:31.405Z,4.40
2023-04-22T01:13:59.482Z,3.90
2023-04-22T01:16:29.588Z,4.22
2023-04-22T01:18:58.065Z,5.05
2023-04-22T01:21:27.983Z,3.90
2023-04-22T01:23:57.650Z,3.38
2023-04-22T01:26:25.787Z,3.30
2023-04-22T01:28:54.057Z,3.90
2023-04-22T01:31:22.216Z,3.35
2023-04-22T01:33:50.838Z,3.75
2023-04-22T01:36:19.337Z,4.82
2023-04-22T01:38:47.600Z,4.68
2023-04-22T01:41:17.942Z,4.22
2023-04-22T01:43:46.528Z,4.53
2023-04-22T01:46:14.669Z,5.03
2023-04-22T01:48:42.765Z,4.85
2023-04-22T01:51:10.936Z,4.10
2023-04-22T01:53:39.026Z,4.72
2023-04-22T01:56:07.708Z,5.00
2023-04-22T01:58:37.219Z,4.75
2023-04-22T02:01:05.337Z,4.07
2023-04-22T02:03:33.675Z,4.13
2023-04-22T02:06:01.935Z,4.10
2023-04-22T02:08:30.716Z,4.28
2023-04-22T02:11:00.534Z,4.20
2023-04-22T02:13:35.471Z,4.22
2023-04-22T02:16:05.589Z,4.65
2023-04-22T02:18:33.992Z,4.70
2023-04-22T02:21:02.198Z,4.25
2023-04-22T02:23:30.706Z,4.22
2023-04-22T02:25:58.809Z,4.40
2023-04-22T02:28:26.928Z,4.22
2023-04-22T02:30:55.027Z,3.65
2023-04-22T02:33:25.175Z,3.85
2023-04-22T02:35:53.322Z,3.90
2023-04-22T02:38:21.394Z,4.53
2023-04-22T02:40:49.496Z,5.28
2023-04-22T02:43:17.609Z,4.80
2023-04-22T02:45:45.698Z,5.00
2023-04-22T02:48:13.753Z,5.40
2023-04-22T02:50:43.243Z,4.38
2023-04-22T02:53:11.256Z,5.18
2023-04-22T02:55:41.182Z,5.38
2023-04-22T02:58:09.821Z,5.22
2023-04-22T03:00:38.098Z,4.20
2023-04-22T03:03:06.904Z,5.10
2023-04-22T03:05:35.068Z,4.60
2023-04-22T03:08:04.623Z,4.13
2023-04-22T03:10:33.524Z,4.70
2023-04-22T03:13:01.612Z,4.90
2023-04-22T03:15:29.675Z,4.70
2023-04-22T03:17:58.054Z,5.25
2023-04-22T03:20:26.184Z,4.72
2023-04-22T03:22:54.278Z,4.40
2023-04-22T03:25:23.813Z,4.95
2023-04-22T03:27:51.956Z,4.53
2023-04-22T03:30:20.156Z,4.13
2023-04-22T03:32:48.353Z,4.60
2023-04-22T03:35:16.540Z,3.92
2023-04-22T03:37:44.745Z,4.13
2023-04-22T03:40:13.802Z,4.28
2023-04-22T03:42:43.620Z,4.95
2023-04-22T03:45:12.292Z,5.00
2023-04-22T03:47:40.414Z,4.93
2023-04-22T03:50:08.938Z,4.68
2023-04-22T03:52:37.002Z,5.55
2023-04-22T03:55:05.588Z,4.55
2023-04-22T03:57:33.621Z,4.90
2023-04-22T04:00:07.505Z,4.85
2023-04-22T04:02:39.898Z,4.38
2023-04-22T04:05:09.570Z,5.38
2023-04-22T04:07:40.472Z,5.30
2023-04-22T04:10:09.820Z,4.50
2023-04-22T04:12:37.926Z,4.40
2023-04-22T04:15:08.984Z,4.60
2023-04-22T04:17:37.179Z,4.78
2023-04-22T04:20:05.788Z,4.57
2023-04-22T04:22:35.404Z,4.13
2023-04-22T04:25:03.627Z,4.05
2023-04-22T04:27:31.673Z,4.90
2023-04-22T04:29:59.711Z,4.40
2023-04-22T04:32:29.304Z,4.18
2023-04-22T04:34:57.796Z,4.35
2023-04-22T04:37:26.443Z,4.20
2023-04-22T04:39:54.842Z,3.67
2023-04-22T04:42:24.622Z,3.92
2023-04-22T04:44:53.659Z,3.45
2023-04-22T04:47:22.834Z,3.63
2023-04-22T04:49:53.931Z,9.85
2023-04-22T04:52:22.057Z,7.10
2023-04-22T04:54:50.229Z,21.23
2023-04-22T04:57:18.314Z,11.93
2023-04-22T04:59:46.404Z,8.00
2023-04-22T05:02:14.573Z,6.88
2023-04-22T05:04:42.825Z,6.75
2023-04-22T05:07:12.540Z,7.57
2023-04-22T05:09:41.080Z,7.30
2023-04-22T05:12:09.587Z,6.00
2023-04-22T05:14:37.671Z,4.88
2023-04-22T05:17:05.778Z,4.78
2023-04-22T05:19:33.939Z,4.47
2023-04-22T05:22:02.115Z,5.00
2023-04-22T05:24:31.600Z,4.32
2023-04-22T05:27:00.120Z,4.90
2023-04-22T05:29:28.744Z,4.10
2023-04-22T05:31:56.805Z,3.78
2023-04-22T05:34:25.035Z,4.30
2023-04-22T05:36:53.153Z,4.15
2023-04-22T05:39:21.585Z,3.95
2023-04-22T05:41:51.283Z,4.03
2023-04-22T05:44:19.350Z,3.78
2023-04-22T05:46:47.865Z,4.40
2023-04-22T05:49:15.975Z,4.40
2023-04-22T05:51:44.090Z,3.92
2023-04-22T05:54:12.283Z,3.72
2023-04-22T05:56:40.784Z,3.63
2023-04-22T05:59:10.311Z,3.75
2023-04-22T06:01:38.676Z,4.15
2023-04-22T06:04:07.326Z,3.58
2023-04-22T06:06:35.704Z,4.03
2023-04-22T06:09:03.854Z,3.95
2023-04-22T06:11:32.302Z,4.25
2023-04-22T06:14:00.509Z,4.43
2023-04-22T06:16:30.982Z,4.20
2023-04-22T06:18:59.073Z,4.38
2023-04-22T06:21:27.327Z,4.93
2023-04-22T06:23:56.186Z,4.55
2023-04-22T06:26:24.377Z,4.20
2023-04-22T06:28:52.674Z,4.57
2023-04-22T06:31:29.685Z,5.05
2023-04-22T06:34:02.621Z,4.88
2023-04-22T06:36:37.737Z,4.47
2023-04-22T06:39:06.631Z,3.90
2023-04-22T06:41:34.738Z,4.20
2023-04-22T06:44:03.243Z,3.92
2023-04-22T06:46:31.416Z,4.47
2023-04-22T06:49:01.113Z,4.35
2023-04-22T06:51:29.329Z,4.15
2023-04-22T06:53:58.462Z,4.47
2023-04-22T06:56:27.078Z,3.95
2023-04-22T06:58:55.169Z,3.50
2023-04-22T07:01:23.261Z,3.60
2023-04-22T07:03:51.626Z,3.63
2023-04-22T07:06:21.210Z,2.30
2023-04-22T07:08:49.437Z,2.67
2023-04-22T07:11:17.613Z,2.95
2023-04-22T07:13:46.695Z,2.40
2023-04-22T07:16:15.011Z,2.67
2023-04-22T07:18:43.090Z,2.53
2023-04-22T07:21:11.218Z,2.80
2023-04-22T07:23:41.154Z,2.90
2023-04-22T07:26:09.360Z,2.90
2023-04-22T07:28:37.846Z,3.00
2023-04-22T07:31:06.327Z,2.45
2023-04-22T07:33:34.488Z,3.10
2023-04-22T07:36:02.886Z,3.20
2023-04-22T07:38:31.008Z,3.08
2023-04-22T07:41:00.522Z,2.92
2023-04-22T07:43:28.620Z,3.20
2023-04-22T07:45:56.757Z,2.83
2023-04-22T07:48:24.919Z,2.83
2023-04-22T07:50:53.081Z,3.08
2023-04-22T07:53:21.182Z,2.83
2023-04-22T07:55:49.877Z,3.40
2023-04-22T07:58:19.716Z,2.75
2023-04-22T08:00:47.920Z,3.30
2023-04-22T08:03:16.569Z,3.08
2023-04-22T08:05:44.842Z,2.97
2023-04-22T08:08:12.993Z,2.78
2023-04-22T08:10:41.237Z,3.25
2023-04-22T08:13:09.300Z,3.13
2023-04-22T08:15:39.313Z,3.15
2023-04-22T08:18:07.688Z,3.58
2023-04-22T08:20:36.014Z,3.30
2023-04-22T08:23:07.757Z,3.00
2023-04-22T08:25:38.797Z,3.78
2023-04-22T08:28:09.595Z,3.33
2023-04-22T08:30:39.263Z,3.05
2023-04-22T08:33:07.818Z,3.20
2023-04-22T08:35:37.916Z,3.30
2023-04-22T08:38:06.112Z,3.38
2023-04-22T08:40:36.373Z,3.70
2023-04-22T08:43:04.737Z,3.80
2023-04-22T08:45:33.513Z,3.25
2023-04-22T08:48:05.094Z,3.00
2023-04-22T08:50:33.263Z,3.25
2023-04-22T08:53:01.479Z,2.70
2023-04-22T08:55:30.197Z,3.10
2023-04-22T08:58:00.435Z,3.35
2023-04-22T09:00:28.805Z,3.13
2023-04-22T09:02:59.140Z,3.40
2023-04-22T09:05:34.479Z,3.92
2023-04-22T09:08:03.577Z,3.30
2023-04-22T09:10:34.472Z,3.35
2023-04-22T09:13:04.715Z,3.30
2023-04-22T09:15:33.183Z,3.47
2023-04-22T09:18:01.581Z,3.50
2023-04-22T09:20:32.129Z,2.97
2023-04-22T09:23:05.182Z,3.10
2023-04-22T09:25:36.475Z,3.40
2023-04-22T09:28:04.618Z,4.05
2023-04-22T09:30:35.047Z,3.50
2023-04-22T09:33:04.804Z,3.42
2023-04-22T09:35:40.083Z,3.85
2023-04-22T09:38:09.440Z,3.40
2023-04-22T09:40:39.648Z,3.20
2023-04-22T09:43:09.696Z,3.45
2023-04-22T09:45:39.461Z,3.35
2023-04-22T09:48:09.709Z,3.35
2023-04-22T09:50:41.551Z,3.30
2023-04-22T09:53:12.047Z,3.53
2023-04-22T09:55:42.877Z,3.17
2023-04-22T09:58:12.980Z,3.17
2023-04-22T10:00:43.334Z,3.63
2023-04-22T10:03:11.699Z,3.10
2023-04-22T10:05:42.207Z,3.47
2023-04-22T10:08:11.658Z,3.20
2023-04-22T10:10:40.125Z,3.10
2023-04-22T10:13:08.822Z,3.08
2023-04-22T10:15:40.124Z,3.10
2023-04-22T10:18:11.472Z,3.40
2023-04-22T10:20:43.458Z,3.05
2023-04-22T10:23:15.894Z,3.45
2023-04-22T10:25:43.979Z,3.45
2023-04-22T10:28:14.529Z,3.42
2023-04-22T10:30:42.589Z,3.08
2023-04-22T10:33:39.405Z,3.00
2023-04-22T10:36:11.447Z,3.70
2023-04-22T10:38:41.506Z,3.38
2023-04-22T10:41:15.468Z,3.22
2023-04-22T10:43:45.412Z,3.00
2023-04-22T10:46:56.131Z,3.15
2023-04-22T10:49:25.705Z,3.10
2023-04-22T10:51:58.501Z,3.22
2023-04-22T10:55:01.335Z,2.80
2023-04-22T11:00:52.226Z,2.80
2023-04-22T11:03:28.910Z,2.85
2023-04-22T11:06:16.408Z,2.67
2023-04-22T11:08:47.814Z,2.75
2023-04-22T11:11:17.838Z,3.37
2023-04-22T11:13:47.591Z,2.80
2023-04-22T11:16:15.816Z,2.97
2023-04-22T11:18:48.070Z,2.67
2023-04-22T11:21:16.356Z,2.97
2023-04-22T11:23:53.345Z,2.88
2023-04-22T11:26:34.541Z,2.80
2023-04-22T11:29:02.649Z,2.95
2023-04-22T11:31:30.831Z,2.70
2023-04-22T11:34:00.464Z,2.83
2023-04-22T11:36:28.978Z,3.03
2023-04-22T11:38:58.487Z,2.83
2023-04-22T11:41:26.610Z,3.00
2023-04-22T11:43:55.720Z,2.60
2023-04-22T11:46:30.223Z,3.03
2023-04-22T11:49:13.133Z,2.92
2023-04-22T11:51:54.074Z,3.05
2023-04-22T11:54:36.382Z,3.00
2023-04-22T11:57:05.375Z,2.90
2023-04-22T11:59:33.538Z,2.85
2023-04-22T12:02:07.140Z,2.72
2023-04-22T12:04:38.058Z,3.17
2023-04-22T12:07:06.146Z,2.85
2023-04-22T12:09:36.220Z,2.60
2023-04-22T12:12:05.222Z,2.60
2023-04-22T12:14:34.563Z,2.83
2023-04-22T12:17:05.581Z,2.85
2023-04-22T12:19:34.194Z,2.70
2023-04-22T12:22:02.275Z,3.17
2023-04-22T12:24:31.377Z,3.03
2023-04-22T12:27:01.428Z,2.60
2023-04-22T12:29:32.637Z,2.40
2023-04-22T12:32:00.745Z,2.95
2023-04-22T12:34:28.796Z,2.88
2023-04-22T12:36:57.050Z,2.90
2023-04-22T12:39:25.101Z,2.80
2023-04-22T12:41:53.117Z,3.38
2023-04-22T12:44:25.055Z,2.67
2023-04-22T12:49:21.908Z,3.00
2023-04-22T12:51:50.182Z,2.65
2023-04-22T12:54:19.606Z,3.20
2023-04-22T12:56:48.311Z,2.85
2023-04-22T12:59:16.596Z,2.90
2023-04-22T13:01:48.734Z,2.88
2023-04-22T13:06:44.811Z,2.75
2023-04-22T13:09:13.100Z,2.83
2023-04-22T13:11:41.240Z,2.70
2023-04-22T13:14:09.361Z,2.60
2023-04-22T13:16:37.577Z,3.13
2023-04-22T13:19:07.757Z,2.83
2023-04-22T13:21:35.845Z,2.95
2023-04-22T13:24:04.374Z,2.42
2023-04-22T13:26:32.476Z,3.17
2023-04-22T13:29:02.679Z,2.70
2023-04-22T13:31:31.563Z,2.55
2023-04-22T13:33:59.662Z,2.85
2023-04-22T13:36:29.132Z,2.75
2023-04-22T13:38:58.350Z,3.13
2023-04-22T13:41:26.683Z,3.45
2023-04-22T13:43:56.186Z,3.50
2023-04-22T13:46:27.255Z,3.15
2023-04-22T13:48:56.877Z,3.17
2023-04-22T13:51:24.993Z,3.05
2023-04-22T13:53:54.486Z,3.17
2023-04-22T13:56:22.535Z,3.17
2023-04-22T13:58:51.046Z,3.70
2023-04-22T14:01:19.308Z,2.70
2023-04-22T14:03:48.095Z,2.70
2023-04-22T14:06:16.608Z,3.08
2023-04-22T14:08:45.071Z,3.00
2023-04-22T14:11:14.844Z,2.90
2023-04-22T14:13:43.156Z,3.70
2023-04-22T14:16:12.094Z,3.03
2023-04-22T14:18:41.081Z,2.78
2023-04-22T14:21:10.623Z,5.03
2023-04-22T14:23:39.130Z,3.75
2023-04-22T14:26:08.013Z,2.80
2023-04-22T14:28:38.144Z,2.70
2023-04-22T14:31:06.768Z,2.80
2023-04-22T14:33:35.081Z,3.22
2023-04-22T14:36:03.355Z,3.15
2023-04-22T14:38:31.441Z,3.30
2023-04-22T14:40:59.675Z,2.88
2023-04-22T14:43:27.845Z,3.28
2023-04-22T14:45:57.366Z,2.88
2023-04-22T14:48:30.131Z,2.97
2023-04-22T14:50:59.930Z,2.88
2023-04-22T14:53:28.081Z,3.20
2023-04-22T14:55:56.697Z,2.90
2023-04-22T14:58:25.478Z,2.55
2023-04-22T15:00:53.768Z,2.75
2023-04-22T15:03:23.589Z,2.78
2023-04-22T15:05:52.555Z,2.60
2023-04-22T15:08:20.757Z,3.08
2023-04-22T15:10:48.888Z,2.63
2023-04-22T15:13:17.019Z,3.38
2023-04-22T15:15:45.211Z,8.35
2023-04-22T15:18:13.348Z,7.45
2023-04-22T15:20:42.938Z,3.38
2023-04-22T15:23:11.030Z,3.55
2023-04-22T15:25:39.500Z,3.00
2023-04-22T15:28:07.582Z,3.47
2023-04-22T15:30:35.714Z,3.20
2023-04-22T15:33:04.970Z,2.90
2023-04-22T15:35:33.234Z,2.90
2023-04-22T15:38:03.105Z,2.78
2023-04-22T15:40:31.207Z,3.05
2023-04-22T15:42:59.340Z,3.20
2023-04-22T15:45:27.468Z,3.08
2023-04-22T15:47:56.645Z,2.90
2023-04-22T15:50:25.174Z,2.78
2023-04-22T15:52:54.250Z,2.90
2023-04-22T15:55:24.099Z,3.47
2023-04-22T15:57:52.200Z,2.97
2023-04-22T16:00:20.596Z,2.88
2023-04-22T16:02:55.314Z,2.78
2023-04-22T16:05:25.179Z,2.65
2023-04-22T16:07:53.573Z,2.95
2023-04-22T16:10:26.372Z,2.60
2023-04-22T16:12:54.446Z,2.60
2023-04-22T16:15:25.917Z,2.70
2023-04-22T16:17:54.191Z,3.00
2023-04-22T16:20:22.524Z,2.50
2023-04-22T16:22:50.591Z,2.85
2023-04-22T16:25:18.870Z,2.67
2023-04-22T16:27:48.375Z,2.70
2023-04-22T16:30:16.748Z,3.03
2023-04-22T16:32:44.857Z,2.75
2023-04-22T16:35:13.066Z,2.78
2023-04-22T16:37:41.140Z,3.20
2023-04-22T16:40:10.116Z,3.38
2023-04-22T16:42:38.144Z,3.00
2023-04-22T16:45:08.683Z,2.97
2023-04-22T16:47:36.882Z,3.08
2023-04-22T16:50:05.592Z,2.92
2023-04-22T16:52:33.669Z,2.65
2023-04-22T16:55:01.743Z,3.30
2023-04-22T16:57:29.890Z,3.03
2023-04-22T16:59:58.138Z,2.90
2023-04-22T17:02:27.917Z,2.63
2023-04-22T17:04:56.066Z,3.03
2023-04-22T17:07:24.077Z,3.50
2023-04-22T17:09:52.302Z,3.28
2023-04-22T17:12:20.530Z,3.15
2023-04-22T17:14:48.646Z,2.83
2023-04-22T17:17:16.687Z,2.95
2023-04-22T17:19:46.198Z,3.17
2023-04-22T17:22:14.273Z,4.15
2023-04-22T17:24:42.480Z,3.80
2023-04-22T17:27:10.779Z,4.20
2023-04-22T17:29:38.947Z,3.75
2023-04-22T17:32:07.486Z,3.75
2023-04-22T17:34:35.587Z,3.28
2023-04-22T17:37:05.040Z,3.97
2023-04-22T17:39:33.249Z,3.92
2023-04-22T17:42:01.875Z,3.40
2023-04-22T17:44:31.231Z,3.28
2023-04-22T17:46:59.481Z,3.20
2023-04-22T17:49:27.821Z,6.22
2023-04-22T17:51:56.434Z,6.32
2023-04-22T17:54:26.155Z,4.90
2023-04-22T17:56:54.336Z,4.05
2023-04-22T17:59:22.541Z,5.43
2023-04-22T18:01:50.791Z,4.72
2023-04-22T18:04:18.967Z,4.47
2023-04-22T18:06:47.182Z,4.20
2023-04-22T18:09:15.305Z,3.70
2023-04-22T18:11:44.866Z,4.45
2023-04-22T18:14:13.105Z,3.78
2023-04-22T18:16:41.329Z,4.32
2023-04-22T18:19:09.702Z,4.43
2023-04-22T18:21:41.553Z,4.20
2023-04-22T18:24:14.818Z,4.43
2023-04-22T18:26:47.160Z,4.20
2023-04-22T18:29:15.330Z,3.90
2023-04-22T18:31:43.622Z,4.15
2023-04-22T18:34:13.601Z,4.68
2023-04-22T18:36:42.051Z,4.15
2023-04-22T18:39:10.269Z,4.55
2023-04-22T18:41:39.622Z,6.90
2023-04-22T18:44:11.872Z,4.63
2023-04-22T18:46:39.957Z,5.13
2023-04-22T18:49:08.077Z,4.75
2023-04-22T18:51:36.259Z,4.20
2023-04-22T18:54:04.621Z,4.50
2023-04-22T18:56:33.506Z,4.15
2023-04-22T18:59:01.568Z,4.15
2023-04-22T19:01:31.899Z,4.90
2023-04-22T19:04:41.848Z,4.20
2023-04-22T19:07:15.285Z,4.40
2023-04-22T19:09:46.911Z,5.07
2023-04-22T19:12:17.045Z,5.60
2023-04-22T19:14:45.618Z,4.75
2023-04-22T19:17:15.279Z,4.72
2023-04-22T19:19:44.454Z,5.10
2023-04-22T19:22:13.583Z,5.53
2023-04-22T19:24:41.669Z,5.05
2023-04-22T19:27:12.835Z,4.70
2023-04-22T19:29:41.773Z,5.13
2023-04-22T19:32:11.068Z,4.35
2023-04-22T19:34:44.422Z,5.00
2023-04-22T19:37:12.628Z,4.72
2023-04-22T19:39:41.450Z,4.82
2023-04-22T19:42:10.501Z,4.55
2023-04-22T19:44:41.207Z,5.10
2023-04-22T19:47:13.738Z,4.72
2023-04-22T19:49:44.023Z,4.70
2023-04-22T19:52:15.807Z,4.22
2023-04-22T19:54:48.009Z,4.60
2023-04-22T19:57:16.804Z,4.57
2023-04-22T19:59:51.200Z,4.80
2023-04-22T20:02:21.600Z,5.68
2023-04-22T20:04:53.686Z,4.55
2023-04-22T20:07:23.921Z,4.65
2023-04-22T20:09:54.999Z,4.50
2023-04-22T20:12:23.479Z,3.85
2023-04-22T20:14:54.918Z,4.40
2023-04-22T20:17:23.493Z,3.75
2023-04-22T20:19:54.316Z,3.97
2023-04-22T20:22:25.372Z,3.97
2023-04-22T20:24:57.437Z,4.20
2023-04-22T20:27:26.080Z,4.82
2023-04-22T20:29:55.650Z,4.53
2023-04-22T20:32:23.927Z,4.70
2023-04-22T20:34:54.449Z,4.63
2023-04-22T20:37:24.384Z,3.90
2023-04-22T20:39:53.876Z,4.30
2023-04-22T20:42:23.111Z,4.00
2023-04-22T20:44:51.652Z,4.20
2023-04-22T20:47:19.788Z,4.20
2023-04-22T20:49:47.965Z,4.15
2023-04-22T20:52:17.737Z,4.05
2023-04-22T20:54:46.119Z,3.88
2023-04-22T20:57:14.453Z,4.20
2023-04-22T20:59:42.588Z,3.58
2023-04-22T21:02:11.573Z,3.60
2023-04-22T21:04:40.369Z,3.67
2023-04-22T21:07:12.010Z,3.88
2023-04-22T21:09:41.933Z,4.47
2023-04-22T21:12:11.217Z,4.47
2023-04-22T21:14:42.727Z,4.43
2023-04-22T21:17:19.704Z,4.07
2023-04-22T21:19:50.074Z,4.53
2023-04-22T21:22:21.282Z,3.90
2023-04-22T21:24:51.962Z,4.85
2023-04-22T21:27:21.490Z,4.60
2023-04-22T21:29:50.360Z,4.30
2023-04-22T21:32:20.429Z,4.47
2023-04-22T21:34:48.675Z,5.10
2023-04-22T21:37:17.026Z,4.88
2023-04-22T21:39:45.240Z,4.72
2023-04-22T21:42:14.799Z,4.63
2023-04-22T21:44:49.565Z,4.50
2023-04-22T21:47:17.783Z,4.28
2023-04-22T21:49:47.360Z,4.07
2023-04-22T21:52:15.531Z,3.90
2023-04-22T21:54:43.960Z,4.50
2023-04-22T21:57:12.591Z,3.95
2023-04-22T21:59:42.648Z,4.22
2023-04-22T22:02:11.496Z,4.20
2023-04-22T22:04:41.356Z,3.92
2023-04-22T22:07:09.884Z,4.60
2023-04-22T22:09:38.020Z,4.15
2023-04-22T22:12:07.942Z,3.92
2023-04-22T22:14:36.131Z,3.85
2023-04-22T22:17:08.563Z,4.10
2023-04-22T22:19:36.754Z,3.67
2023-04-22T22:22:05.389Z,4.00
2023-04-22T22:24:33.763Z,5.50
2023-04-22T22:27:02.035Z,3.97
2023-04-22T22:29:30.298Z,3.65
2023-04-22T22:31:58.392Z,3.67
2023-04-22T22:34:29.526Z,4.13
2023-04-22T22:36:57.806Z,3.58
2023-04-22T22:39:25.988Z,3.47
2023-04-22T22:41:55.473Z,3.50
2023-04-22T22:44:23.557Z,3.90
2023-04-22T22:46:51.765Z,3.53
2023-04-22T22:49:19.871Z,3.22
2023-04-22T22:51:49.406Z,3.40
2023-04-22T22:54:17.684Z,3.53
2023-04-22T22:56:46.116Z,3.70
2023-04-22T22:59:14.210Z,3.47
2023-04-22T23:01:42.383Z,3.50
2023-04-22T23:04:10.861Z,3.28
2023-04-22T23:06:39.129Z,3.25
2023-04-22T23:09:09.326Z,3.00
2023-04-22T23:11:37.464Z,3.40
2023-04-22T23:14:06.073Z,2.95
2023-04-22T23:16:34.311Z,3.33
2023-04-22T23:19:03.248Z,4.35
2023-04-22T23:21:33.292Z,4.15
2023-04-22T23:24:02.078Z,5.32
2023-04-22T23:26:32.210Z,5.05
2023-04-22T23:29:00.903Z,4.88
2023-04-22T23:31:31.268Z,4.63
2023-04-22T23:34:03.854Z,3.65
2023-04-22T23:36:33.841Z,4.32
2023-04-22T23:39:02.018Z,4.40
2023-04-22T23:41:31.591Z,4.10
2023-04-22T23:44:00.043Z,4.40
2023-04-22T23:46:28.389Z,3.97
2023-04-22T23:48:57.345Z,3.95
2023-04-22T23:51:28.962Z,5.10
2023-04-22T23:53:57.065Z,4.22
2023-04-22T23:56:26.249Z,3.75
2023-04-22T23:58:56.415Z,4.13
